createdAt,value
2018-08-17T00:02:22.711Z,20.72
2018-08-17T00:04:57.433Z,20.69
2018-08-17T00:07:31.893Z,20.67
2018-08-17T00:10:06.669Z,20.70
2018-08-17T00:12:41.236Z,20.69
2018-08-17T00:15:15.773Z,20.72
2018-08-17T00:17:50.383Z,20.67
2018-08-17T00:20:25.076Z,20.65
2018-08-17T00:22:59.689Z,20.74
2018-08-17T00:25:46.264Z,20.67
2018-08-17T00:28:20.947Z,20.57
2018-08-17T00:30:55.468Z,20.59
2018-08-17T00:33:30.433Z,20.54
2018-08-17T00:36:05.157Z,20.87
2018-08-17T00:38:39.792Z,20.81
2018-08-17T00:41:14.381Z,20.67
2018-08-17T00:43:54.621Z,20.66
2018-08-17T00:49:41.715Z,20.78
2018-08-17T00:52:16.330Z,20.73
2018-08-17T00:54:51.126Z,20.73
2018-08-17T00:57:25.658Z,21.60
2018-08-17T01:00:00.312Z,21.46
2018-08-17T01:02:42.269Z,21.48
2018-08-17T01:05:30.528Z,21.36
2018-08-17T01:08:11.096Z,21.10
2018-08-17T01:10:45.520Z,21.06
2018-08-17T01:13:20.265Z,21.20
2018-08-17T01:15:54.923Z,21.15
2018-08-17T01:18:29.622Z,21.12
2018-08-17T01:21:04.182Z,21.14
2018-08-17T01:23:38.932Z,20.89
2018-08-17T01:26:13.561Z,20.89
2018-08-17T01:28:48.124Z,20.60
2018-08-17T01:31:22.856Z,20.63
2018-08-17T01:33:57.360Z,20.67
2018-08-17T01:36:32.133Z,20.77
2018-08-17T01:39:08.270Z,21.20
2018-08-17T01:41:42.893Z,21.23
2018-08-17T01:44:17.397Z,21.23
2018-08-17T01:46:52.061Z,21.39
2018-08-17T01:49:26.569Z,21.44
2018-08-17T01:52:01.317Z,21.52
2018-08-17T01:54:36.130Z,21.66
2018-08-17T01:57:10.752Z,21.99
2018-08-17T01:59:45.845Z,22.10
2018-08-17T02:02:20.359Z,21.79
2018-08-17T02:04:54.920Z,22.06
2018-08-17T02:07:29.642Z,22.21
2018-08-17T02:10:05.161Z,21.99
2018-08-17T02:12:39.911Z,21.74
2018-08-17T02:15:14.544Z,21.75
2018-08-17T02:17:49.142Z,22.43
2018-08-17T02:20:23.795Z,21.54
2018-08-17T02:22:58.382Z,21.12
2018-08-17T02:25:33.011Z,21.06
2018-08-17T02:28:07.632Z,21.03
2018-08-17T02:30:42.285Z,20.99
2018-08-17T02:33:17.008Z,20.65
2018-08-17T02:35:51.643Z,20.66
2018-08-17T02:38:26.293Z,20.63
2018-08-17T02:41:01.031Z,20.43
2018-08-17T02:43:35.693Z,20.34
2018-08-17T02:46:10.289Z,19.94
2018-08-17T02:48:45.001Z,19.74
2018-08-17T02:51:19.596Z,19.60
2018-08-17T02:53:54.161Z,19.54
2018-08-17T02:56:28.809Z,19.48
2018-08-17T02:59:03.408Z,19.32
2018-08-17T03:01:38.129Z,19.12
2018-08-17T03:04:12.720Z,19.04
2018-08-17T03:06:47.373Z,18.90
2018-08-17T03:09:22.078Z,19.09
2018-08-17T03:11:56.689Z,18.93
2018-08-17T03:14:31.312Z,18.97
2018-08-17T03:17:05.848Z,19.14
2018-08-17T03:19:40.499Z,19.18
2018-08-17T03:22:15.189Z,19.21
2018-08-17T03:24:49.846Z,19.11
2018-08-17T03:27:24.420Z,18.98
2018-08-17T03:29:59.023Z,19.05
2018-08-17T03:32:33.653Z,19.10
2018-08-17T03:35:08.320Z,19.00
2018-08-17T03:37:42.932Z,19.30
2018-08-17T03:40:17.677Z,19.08
2018-08-17T03:42:52.321Z,18.91
2018-08-17T03:45:26.864Z,18.98
2018-08-17T03:48:01.556Z,19.27
2018-08-17T03:50:36.174Z,18.72
2018-08-17T03:53:10.852Z,19.52
2018-08-17T03:55:45.337Z,19.72
2018-08-17T03:58:19.884Z,19.24
2018-08-17T04:00:54.757Z,19.24
2018-08-17T04:03:29.337Z,19.17
2018-08-17T04:06:03.888Z,19.14
2018-08-17T04:08:38.772Z,19.01
2018-08-17T04:11:13.433Z,19.00
2018-08-17T04:13:48.064Z,18.26
2018-08-17T04:16:22.856Z,18.18
2018-08-17T04:19:00.429Z,18.16
2018-08-17T04:21:35.043Z,18.04
2018-08-17T04:24:28.520Z,18.07
2018-08-17T04:27:03.736Z,18.96
2018-08-17T04:29:38.428Z,18.11
2018-08-17T04:32:13.007Z,18.21
2018-08-17T04:34:47.575Z,18.19
2018-08-17T04:37:22.237Z,18.19
2018-08-17T04:39:57.096Z,18.19
2018-08-17T04:42:31.733Z,18.14
2018-08-17T04:45:06.916Z,18.16
2018-08-17T04:47:41.244Z,18.21
2018-08-17T04:50:15.696Z,18.43
2018-08-17T04:52:50.280Z,18.53
2018-08-17T04:55:24.748Z,18.35
2018-08-17T04:58:00.165Z,18.29
2018-08-17T05:00:34.745Z,18.46
2018-08-17T05:03:09.391Z,18.47
2018-08-17T05:05:43.982Z,18.50
2018-08-17T05:08:18.746Z,18.56
2018-08-17T05:10:53.325Z,18.80
2018-08-17T05:13:27.933Z,18.70
2018-08-17T05:16:02.516Z,18.87
2018-08-17T05:18:37.173Z,18.85
2018-08-17T05:21:11.797Z,19.33
2018-08-17T05:23:46.354Z,19.17
2018-08-17T05:26:21.008Z,19.37
2018-08-17T05:28:55.528Z,19.26
2018-08-17T05:31:30.092Z,19.31
2018-08-17T05:34:04.802Z,19.33
2018-08-17T05:36:39.512Z,19.82
2018-08-17T05:39:14.111Z,19.67
2018-08-17T05:41:48.804Z,19.41
2018-08-17T05:44:23.427Z,19.71
2018-08-17T05:46:58.080Z,20.21
2018-08-17T05:49:32.718Z,20.45
2018-08-17T05:55:06.289Z,19.72
2018-08-17T05:57:41.004Z,20.12
2018-08-17T06:00:15.652Z,20.32
2018-08-17T06:02:50.327Z,20.07
2018-08-17T06:05:25.284Z,20.02
2018-08-17T06:07:59.981Z,19.20
2018-08-17T06:10:34.925Z,19.02
2018-08-17T06:13:09.495Z,18.96
2018-08-17T06:15:44.024Z,18.95
2018-08-17T06:18:18.713Z,19.11
2018-08-17T06:20:53.347Z,18.90
2018-08-17T06:23:27.945Z,19.25
2018-08-17T06:26:02.786Z,18.39
2018-08-17T06:28:37.452Z,18.51
2018-08-17T06:31:32.149Z,18.09
2018-08-17T06:34:06.847Z,18.20
2018-08-17T06:36:41.614Z,17.96
2018-08-17T06:39:16.181Z,17.96
2018-08-17T06:41:50.801Z,17.88
2018-08-17T06:44:25.484Z,17.85
2018-08-17T06:47:00.249Z,18.31
2018-08-17T06:49:34.789Z,17.78
2018-08-17T06:52:09.411Z,17.82
2018-08-17T06:54:44.300Z,18.00
2018-08-17T06:57:18.835Z,17.71
2018-08-17T06:59:53.361Z,17.79
2018-08-17T07:02:28.064Z,17.76
2018-08-17T07:05:02.622Z,17.67
2018-08-17T07:07:37.472Z,17.79
2018-08-17T07:10:13.150Z,17.71
2018-08-17T07:12:47.980Z,17.78
2018-08-17T07:15:22.628Z,18.09
2018-08-17T07:18:15.549Z,18.05
2018-08-17T07:20:50.058Z,18.14
2018-08-17T07:23:24.576Z,18.05
2018-08-17T07:25:59.272Z,18.36
2018-08-17T07:28:34.016Z,18.50
2018-08-17T07:31:08.593Z,17.88
2018-08-17T07:33:43.930Z,17.99
2018-08-17T07:36:18.650Z,18.02
2018-08-17T07:38:53.589Z,18.29
2018-08-17T07:41:28.157Z,18.22
2018-08-17T07:44:03.225Z,18.47
2018-08-17T07:46:58.360Z,18.72
2018-08-17T07:49:33.567Z,19.08
2018-08-17T07:52:08.293Z,19.17
2018-08-17T07:54:45.153Z,19.44
2018-08-17T07:57:19.849Z,19.37
2018-08-17T07:59:54.244Z,19.55
2018-08-17T08:02:28.677Z,19.65
2018-08-17T08:05:03.145Z,19.89
2018-08-17T08:07:37.828Z,19.78
2018-08-17T08:10:12.614Z,19.57
2018-08-17T08:12:47.347Z,19.90
2018-08-17T08:15:22.017Z,19.72
2018-08-17T08:17:56.900Z,19.91
2018-08-17T08:20:33.896Z,20.17
2018-08-17T08:23:19.705Z,20.05
2018-08-17T08:25:54.699Z,20.49
2018-08-17T08:28:34.420Z,20.37
2018-08-17T08:31:09.096Z,20.52
2018-08-17T08:36:43.075Z,20.90
2018-08-17T08:39:18.592Z,21.60
2018-08-17T08:41:53.161Z,22.36
2018-08-17T08:44:31.792Z,22.59
2018-08-17T08:47:06.367Z,22.25
2018-08-17T08:49:45.644Z,22.16
2018-08-17T08:52:20.265Z,21.88
2018-08-17T08:57:53.818Z,21.19
2018-08-17T09:00:28.427Z,21.01
2018-08-17T09:03:10.580Z,20.91
2018-08-17T09:05:45.085Z,20.81
2018-08-17T09:08:19.863Z,20.92
2018-08-17T09:10:54.432Z,20.81
2018-08-17T09:13:28.988Z,20.75
2018-08-17T09:16:03.618Z,21.06
2018-08-17T09:18:38.297Z,20.86
2018-08-17T09:21:12.954Z,20.93
2018-08-17T09:23:47.517Z,20.60
2018-08-17T09:26:22.077Z,21.06
2018-08-17T09:28:56.677Z,20.90
2018-08-17T09:31:31.252Z,20.93
2018-08-17T09:34:13.236Z,21.23
2018-08-17T09:36:47.659Z,20.92
2018-08-17T09:39:22.152Z,21.19
2018-08-17T09:41:56.957Z,21.52
2018-08-17T09:44:31.427Z,21.30
2018-08-17T09:47:06.079Z,21.34
2018-08-17T09:49:40.760Z,21.50
2018-08-17T09:52:15.204Z,21.10
2018-08-17T09:54:49.844Z,21.35
2018-08-17T09:57:24.450Z,21.09
2018-08-17T09:59:58.932Z,20.90
2018-08-17T10:02:38.845Z,20.62
2018-08-17T10:05:19.172Z,20.29
2018-08-17T10:07:59.119Z,20.16
2018-08-17T10:10:33.713Z,20.04
2018-08-17T10:13:08.258Z,20.15
2018-08-17T10:15:42.783Z,19.97
2018-08-17T10:18:17.581Z,19.65
2018-08-17T10:20:52.282Z,19.49
2018-08-17T10:23:26.861Z,19.66
2018-08-17T10:26:02.397Z,19.70
2018-08-17T10:28:37.283Z,20.10
2018-08-17T10:31:12.536Z,20.11
2018-08-17T10:33:48.465Z,19.94
2018-08-17T10:36:22.918Z,19.94
2018-08-17T10:38:57.581Z,19.64
2018-08-17T10:41:32.274Z,19.13
2018-08-17T10:44:06.948Z,19.46
2018-08-17T10:46:53.881Z,19.64
2018-08-17T10:52:27.313Z,20.15
2018-08-17T10:55:02.006Z,20.41
2018-08-17T10:57:36.468Z,20.89
2018-08-17T11:00:14.573Z,20.85
2018-08-17T11:02:49.061Z,20.98
2018-08-17T11:05:23.976Z,21.59
2018-08-17T11:07:58.489Z,21.59
2018-08-17T11:10:33.173Z,21.78
2018-08-17T11:13:07.813Z,22.13
2018-08-17T11:15:42.332Z,22.49
2018-08-17T11:18:16.860Z,22.59
2018-08-17T11:20:52.656Z,22.08
2018-08-17T11:23:27.285Z,22.00
2018-08-17T11:26:02.164Z,22.00
2018-08-17T11:31:37.160Z,21.80
2018-08-17T11:34:12.265Z,22.06
2018-08-17T11:36:46.954Z,23.21
2018-08-17T11:39:21.548Z,23.82
2018-08-17T11:41:56.129Z,22.88
2018-08-17T11:44:30.796Z,22.25
2018-08-17T11:47:05.472Z,21.97
2018-08-17T11:49:40.150Z,21.17
2018-08-17T11:52:14.776Z,21.29
2018-08-17T11:54:49.340Z,20.98
2018-08-17T11:57:23.999Z,20.71
2018-08-17T11:59:58.585Z,20.66
2018-08-17T12:02:33.333Z,21.09
2018-08-17T12:05:08.673Z,20.83
2018-08-17T12:07:44.084Z,20.64
2018-08-17T12:10:18.557Z,20.70
2018-08-17T12:12:53.283Z,20.73
2018-08-17T12:15:27.860Z,20.47
2018-08-17T12:18:02.581Z,20.39
2018-08-17T12:20:37.289Z,20.22
2018-08-17T12:23:11.860Z,20.11
2018-08-17T12:25:51.377Z,19.89
2018-08-17T12:28:27.662Z,20.22
2018-08-17T12:31:02.201Z,20.20
2018-08-17T12:33:37.001Z,20.05
2018-08-17T12:36:11.608Z,19.81
2018-08-17T12:38:46.229Z,20.14
2018-08-17T12:41:20.813Z,20.27
2018-08-17T12:43:55.465Z,20.07
2018-08-17T12:46:30.134Z,20.11
2018-08-17T12:49:04.717Z,20.45
2018-08-17T12:51:39.231Z,20.27
2018-08-17T12:54:17.889Z,19.73
2018-08-17T12:56:53.181Z,19.71
2018-08-17T12:59:27.918Z,19.80
2018-08-17T13:02:02.416Z,20.16
2018-08-17T13:04:37.112Z,20.11
2018-08-17T13:07:11.841Z,20.18
2018-08-17T13:09:46.570Z,20.34
2018-08-17T13:12:21.163Z,20.52
2018-08-17T13:14:55.769Z,21.26
2018-08-17T13:17:46.153Z,20.98
2018-08-17T13:20:21.062Z,21.38
2018-08-17T13:22:55.713Z,21.85
2018-08-17T13:25:30.421Z,22.43
2018-08-17T13:28:04.964Z,22.24
2018-08-17T13:30:39.451Z,22.65
2018-08-17T13:33:14.085Z,22.24
2018-08-17T13:35:48.564Z,22.42
2018-08-17T13:38:23.292Z,22.31
2018-08-17T13:40:57.724Z,22.27
2018-08-17T13:43:32.332Z,22.59
2018-08-17T13:46:07.188Z,21.93
2018-08-17T13:48:41.693Z,21.82
2018-08-17T13:51:21.073Z,21.90
2018-08-17T13:53:58.669Z,21.97
2018-08-17T13:59:32.007Z,21.73
2018-08-17T14:05:06.688Z,22.53
2018-08-17T14:07:41.384Z,22.43
2018-08-17T14:13:19.409Z,22.50
2018-08-17T14:15:54.172Z,22.82
2018-08-17T14:18:28.809Z,22.82
2018-08-17T14:21:03.233Z,22.61
2018-08-17T14:23:37.773Z,22.81
2018-08-17T14:26:12.753Z,22.70
2018-08-17T14:28:47.850Z,22.54
2018-08-17T14:31:22.294Z,23.00
2018-08-17T14:33:56.795Z,23.22
2018-08-17T14:36:31.492Z,22.73
2018-08-17T14:39:06.808Z,21.92
2018-08-17T14:41:55.942Z,22.08
2018-08-17T14:44:30.993Z,23.36
2018-08-17T14:47:05.761Z,24.93
2018-08-17T14:49:40.279Z,26.81
2018-08-17T14:52:14.865Z,27.16
2018-08-17T14:54:49.352Z,27.93
2018-08-17T14:57:24.059Z,28.35
2018-08-17T14:59:58.545Z,27.42
2018-08-17T15:02:32.941Z,27.83
2018-08-17T15:05:08.891Z,26.82
2018-08-17T15:07:43.589Z,26.63
2018-08-17T15:10:18.100Z,28.12
2018-08-17T15:12:52.734Z,27.40
2018-08-17T15:15:27.187Z,28.64
2018-08-17T15:18:02.261Z,28.44
2018-08-17T15:20:36.590Z,28.55
2018-08-17T15:23:11.261Z,28.62
2018-08-17T15:25:45.720Z,28.47
2018-08-17T15:28:20.297Z,27.30
2018-08-17T15:30:54.779Z,27.71
2018-08-17T15:33:29.420Z,27.29
2018-08-17T15:36:04.052Z,28.18
2018-08-17T15:38:38.568Z,27.65
2018-08-17T15:41:12.951Z,27.32
2018-08-17T15:43:47.308Z,26.29
2018-08-17T15:46:21.699Z,27.11
2018-08-17T15:48:57.040Z,26.06
2018-08-17T15:51:31.581Z,26.14
2018-08-17T15:54:06.040Z,24.71
2018-08-17T15:56:40.598Z,24.49
2018-08-17T15:59:15.205Z,24.39
2018-08-17T16:01:49.765Z,24.25
2018-08-17T16:04:24.388Z,24.22
2018-08-17T16:06:59.024Z,23.94
2018-08-17T16:09:33.655Z,23.23
2018-08-17T16:21:05.340Z,22.59
2018-08-17T16:23:43.048Z,22.61
2018-08-17T16:26:20.930Z,22.46
2018-08-17T16:28:56.203Z,22.07
2018-08-17T16:34:30.220Z,22.33
2018-08-17T16:37:04.796Z,22.28
2018-08-17T16:39:44.716Z,22.07
2018-08-17T16:42:25.365Z,22.13
2018-08-17T16:45:00.196Z,21.99
2018-08-17T16:47:34.905Z,21.94
2018-08-17T16:50:09.921Z,22.06
2018-08-17T16:52:44.522Z,21.97
2018-08-17T16:55:19.216Z,21.78
2018-08-17T16:57:53.785Z,21.80
2018-08-17T17:00:28.545Z,21.75
2018-08-17T17:03:03.197Z,21.91
2018-08-17T17:05:37.837Z,21.82
2018-08-17T17:08:12.559Z,21.70
2018-08-17T17:10:47.201Z,21.62
2018-08-17T17:13:21.863Z,21.77
2018-08-17T17:15:56.820Z,21.75
2018-08-17T17:18:31.429Z,21.78
2018-08-17T17:21:06.073Z,21.61
2018-08-17T17:23:46.873Z,21.62
2018-08-17T17:29:21.844Z,21.49
2018-08-17T17:31:56.959Z,21.39
2018-08-17T17:34:31.578Z,21.34
2018-08-17T17:37:06.216Z,21.37
2018-08-17T17:39:40.688Z,21.46
2018-08-17T17:42:15.272Z,21.16
2018-08-17T17:44:50.018Z,21.15
2018-08-17T17:47:24.644Z,21.08
2018-08-17T17:49:59.245Z,21.05
2018-08-17T17:52:33.725Z,20.96
2018-08-17T17:55:08.201Z,20.99
2018-08-17T17:57:42.780Z,20.94
2018-08-17T18:00:17.464Z,20.76
2018-08-17T18:02:52.160Z,20.76
2018-08-17T18:05:26.712Z,20.89
2018-08-17T18:08:06.873Z,20.85
2018-08-17T18:10:41.505Z,20.76
2018-08-17T18:13:16.152Z,20.58
2018-08-17T18:15:50.760Z,20.53
2018-08-17T18:18:25.365Z,20.40
2018-08-17T18:20:59.956Z,20.15
2018-08-17T18:23:34.560Z,19.98
2018-08-17T18:26:12.571Z,19.69
2018-08-17T18:28:46.984Z,19.57
2018-08-17T18:31:21.583Z,19.59
2018-08-17T18:33:56.011Z,19.64
2018-08-17T18:36:30.844Z,19.42
2018-08-17T18:39:08.049Z,19.20
2018-08-17T18:41:42.613Z,19.10
2018-08-17T18:44:17.085Z,18.99
2018-08-17T18:46:51.720Z,18.80
2018-08-17T18:49:26.458Z,18.69
2018-08-17T18:52:01.144Z,18.60
2018-08-17T18:54:36.068Z,18.36
2018-08-17T18:57:10.470Z,18.40
2018-08-17T18:59:44.949Z,18.35
2018-08-17T19:02:19.517Z,18.33
2018-08-17T19:04:54.158Z,18.28
2018-08-17T19:07:28.720Z,18.16
2018-08-17T19:10:03.264Z,17.98
2018-08-17T19:12:38.050Z,18.12
2018-08-17T19:15:13.369Z,18.10
2018-08-17T19:17:47.961Z,18.04
2018-08-17T19:20:22.568Z,17.96
2018-08-17T19:22:57.144Z,17.87
2018-08-17T19:25:31.779Z,17.84
2018-08-17T19:28:06.495Z,17.73
2018-08-17T19:30:41.229Z,17.81
2018-08-17T19:33:15.895Z,17.72
2018-08-17T19:35:50.580Z,17.67
2018-08-17T19:38:25.149Z,17.56
2018-08-17T19:40:59.691Z,17.47
2018-08-17T19:43:34.253Z,17.45
2018-08-17T19:46:09.092Z,17.31
2018-08-17T19:48:43.481Z,17.30
2018-08-17T19:51:19.109Z,17.35
2018-08-17T19:53:53.685Z,17.39
2018-08-17T19:56:28.233Z,17.48
2018-08-17T19:59:02.892Z,17.47
2018-08-17T20:01:37.584Z,17.33
2018-08-17T20:04:12.345Z,17.12
2018-08-17T20:06:47.005Z,17.28
2018-08-17T20:09:21.731Z,17.34
2018-08-17T20:11:56.716Z,17.38
2018-08-17T20:14:31.389Z,17.35
2018-08-17T20:17:06.169Z,17.35
2018-08-17T20:19:45.958Z,17.27
2018-08-17T20:22:21.943Z,17.17
2018-08-17T20:24:56.756Z,17.10
2018-08-17T20:27:31.231Z,17.00
2018-08-17T20:30:11.036Z,17.04
2018-08-17T20:32:46.331Z,16.93
2018-08-17T20:35:21.341Z,16.80
2018-08-17T20:38:02.849Z,16.74
2018-08-17T20:40:43.352Z,16.70
2018-08-17T20:43:18.037Z,16.68
2018-08-17T20:45:52.612Z,16.63
2018-08-17T20:48:27.521Z,16.63
2018-08-17T20:51:06.637Z,16.49
2018-08-17T20:53:41.146Z,16.58
2018-08-17T20:56:15.771Z,16.58
2018-08-17T20:58:50.417Z,16.58
2018-08-17T21:01:25.108Z,16.57
2018-08-17T21:04:22.075Z,16.57
2018-08-17T21:06:56.651Z,16.55
2018-08-17T21:09:31.169Z,16.55
2018-08-17T21:12:05.832Z,16.55
2018-08-17T21:14:40.348Z,16.54
2018-08-17T21:17:15.060Z,16.53
2018-08-17T21:19:49.753Z,16.45
2018-08-17T21:22:24.752Z,16.49
2018-08-17T21:24:59.281Z,16.62
2018-08-17T21:27:34.056Z,16.61
2018-08-17T21:30:09.117Z,16.56
2018-08-17T21:32:43.792Z,16.58
2018-08-17T21:35:18.498Z,16.61
2018-08-17T21:37:54.222Z,16.72
2018-08-17T21:40:29.773Z,16.79
2018-08-17T21:43:04.188Z,16.78
2018-08-17T21:45:38.757Z,16.75
2018-08-17T21:48:18.336Z,16.81
2018-08-17T21:50:53.228Z,16.83
2018-08-17T21:53:27.904Z,16.86
2018-08-17T21:56:02.433Z,16.88
2018-08-17T21:58:36.869Z,16.93
2018-08-17T22:01:11.385Z,16.85
2018-08-17T22:03:45.869Z,16.85
2018-08-17T22:06:20.477Z,16.71
2018-08-17T22:08:54.900Z,16.66
2018-08-17T22:11:35.084Z,16.38
2018-08-17T22:14:09.532Z,16.27
2018-08-17T22:16:44.216Z,16.35
2018-08-17T22:19:30.181Z,16.40
2018-08-17T22:22:04.685Z,16.40
2018-08-17T22:24:54.997Z,16.42
2018-08-17T22:27:30.008Z,16.37
2018-08-17T22:30:06.389Z,16.30
2018-08-17T22:32:40.890Z,16.28
2018-08-17T22:35:15.671Z,16.21
2018-08-17T22:37:50.500Z,16.21
2018-08-17T22:40:25.200Z,16.15
2018-08-17T22:42:59.752Z,16.11
2018-08-17T22:45:34.349Z,16.04
2018-08-17T22:48:08.851Z,15.97
2018-08-17T22:50:43.482Z,15.92
2018-08-17T22:53:18.057Z,15.89
2018-08-17T22:55:52.701Z,15.87
2018-08-17T22:58:27.993Z,15.84
2018-08-17T23:01:02.731Z,15.79
2018-08-17T23:03:41.600Z,15.72
2018-08-17T23:06:16.393Z,15.69
2018-08-17T23:08:51.172Z,15.67
2018-08-17T23:11:34.320Z,15.63
2018-08-17T23:14:16.012Z,15.62
2018-08-17T23:16:50.625Z,15.59
2018-08-17T23:19:25.362Z,15.59
2018-08-17T23:21:59.963Z,15.58
2018-08-17T23:24:34.694Z,15.31
2018-08-17T23:27:09.372Z,15.24
2018-08-17T23:29:43.933Z,15.33
2018-08-17T23:32:18.461Z,15.47
2018-08-17T23:34:52.908Z,15.46
2018-08-17T23:37:27.438Z,15.39
2018-08-17T23:40:01.958Z,15.30
2018-08-17T23:42:36.580Z,15.30
2018-08-17T23:45:12.721Z,15.26
2018-08-17T23:47:47.511Z,15.25
2018-08-17T23:53:21.407Z,15.22
2018-08-17T23:55:56.192Z,15.21
2018-08-17T23:58:30.701Z,15.28
